Time;durP1;ratioP1;P1;durP2;ratioP2;P2;SDS_P1;SDS_P2;PMS_P1;PMS_P2;Temp;Humidity;BMP_temperature;BMP_pressure;BME280_temperature;BME280_humidity;BME280_pressure;Samples;Min_cycle;Max_cycle;Signal;HPM_P1;HPM_P2
2024/01/01 00:04:29;;;;;;;;;;;18.20;64.30;;;;;;4981813;28;42977;-92
2024/01/01 00:06:41;;;;;;;;;;;;;;;;;;4975859;28;43852;-92
2024/01/01 00:09:12;;;;;;;;;;;18.20;64.20;;;;;;4969771;28;42917;-93
2024/01/01 00:11:43;;;;;;;;;;;18.20;64.10;;;;;;4969376;28;44830;-92
2024/01/01 00:14:12;;;;;;;;;;;18.20;64.30;;;;;;4970123;28;43088;-91
2024/01/01 00:39:54;;;;;;;;;;;;;;;;;;4992294;28;43259;-91
2024/01/01 01:03:58;;;;;;;;;;;18.10;64.10;;;;;;5044957;28;43142;-93
2024/01/01 01:06:30;;;;;;;;;;;18.20;64.20;;;;;;5048105;28;42792;-93
2024/01/01 01:09:05;;;;;;;;;;;18.10;64.10;;;;;;5046206;28;43587;-90
2024/01/01 01:11:31;;;;;;;;;;;18.20;64.10;;;;;;5047891;28;42873;-92
2024/01/01 01:13:56;;;;;;;;;;;18.20;64.10;;;;;;5045969;28;44654;-90
2024/01/01 01:20:05;;;;;;;;;;;18.20;63.70;;;;;;5334913;22;42978;-93
2024/01/01 01:29:01;;;;;;;;;;;18.20;63.70;;;;;;5065186;28;42935;-93
2024/01/01 01:59:16;;;;;;;;;;;18.30;64.00;;;;;;4982576;28;42928;-90
2024/01/01 02:10:45;;;;;;;;;;;18.20;63.70;;;;;;4982687;28;42853;-92
2024/01/01 02:13:27;;;;;;;;;;;18.20;63.80;;;;;;4984322;28;44397;-91
2024/01/01 02:16:05;;;;;;;;;;;;;;;;;;5004603;28;42895;-90
2024/01/01 02:31:35;;;;;;;;;;;18.20;63.60;;;;;;4966276;28;43366;-96
2024/01/01 02:34:26;;;;;;;;;;;18.30;63.60;;;;;;4982304;28;43029;-89
2024/01/01 02:36:53;;;;;;;;;;;18.20;63.70;;;;;;4984462;28;44406;-88
2024/01/01 02:40:00;;;;;;;;;;;;;;;;;;;;;
2024/01/01 02:42:35;;;;;;;;;;;18.20;63.80;;;;;;5097857;28;72922;-95
2024/01/01 02:51:14;;;;;;;;;;;18.10;63.90;;;;;;5007424;28;42921;-95
2024/01/01 02:53:40;;;;;;;;;;;18.20;64.00;;;;;;5000634;28;42972;-92
2024/01/01 02:59:13;;;;;;;;;;;18.20;63.70;;;;;;5240498;22;43487;-92
2024/01/01 03:01:51;;;;;;;;;;;;;;;;;;;;;
2024/01/01 03:04:52;;;;;;;;;;;18.10;63.70;;;;;;5000880;28;71266;-96
2024/01/01 03:07:40;;;;;;;;;;;18.30;64.00;;;;;;4940020;28;42879;-96
2024/01/01 03:10:05;;;;;;;;;;;18.20;63.90;;;;;;4939955;28;43147;-95
2024/01/01 03:12:49;;;;;;;;;;;18.10;63.90;;;;;;4932849;28;42984;-92
2024/01/01 03:15:21;;;;;;;;;;;18.00;63.80;;;;;;4932007;28;43806;-95
2024/01/01 03:18:17;;;;;;;;;;;18.10;63.80;;;;;;4936925;28;42295;-95
2024/01/01 03:23:47;;;;;;;;;;;18.10;63.70;;;;;;5354188;22;42405;-90
2024/01/01 03:26:22;;;;;;;;;;;18.20;63.80;;;;;;4999941;28;44199;-88
2024/01/01 03:28:48;;;;;;;;;;;18.10;63.80;;;;;;4975757;28;42996;-96
2024/01/01 03:31:23;;;;;;;;;;;18.00;63.70;;;;;;5042142;28;43568;-91
2024/01/01 03:33:49;;;;;;;;;;;18.10;63.70;;;;;;5076407;28;43020;-96
2024/01/01 03:36:17;;;;;;;;;;;18.20;63.70;;;;;;5273704;22;44327;-94
2024/01/01 03:38:44;;;;;;;;;;;18.20;63.90;;;;;;5018658;28;42931;-89
2024/01/01 03:41:19;;;;;;;;;;;18.10;63.70;;;;;;5023461;28;43751;-93
2024/01/01 03:46:40;;;;;;;;;;;18.10;63.90;;;;;;5014319;28;42873;-96
2024/01/01 03:49:05;;;;;;;;;;;18.10;63.80;;;;;;5020402;28;42805;-91
2024/01/01 03:51:31;;;;;;;;;;;18.10;63.80;;;;;;5021280;28;43978;-89
2024/01/01 03:53:57;;;;;;;;;;;18.10;64.00;;;;;;5004294;28;42920;-93
2024/01/01 03:56:23;;;;;;;;;;;18.20;64.10;;;;;;5003061;28;42815;-85
2024/01/01 03:58:49;;;;;;;;;;;18.10;63.80;;;;;;5003684;28;42804;-86
2024/01/01 04:01:14;;;;;;;;;;;18.10;64.10;;;;;;5003293;28;43082;-86
2024/01/01 04:03:40;;;;;;;;;;;18.00;64.20;;;;;;5003676;28;43115;-85
2024/01/01 04:06:07;;;;;;;;;;;18.00;64.40;;;;;;5003342;28;43066;-86
2024/01/01 04:08:33;;;;;;;;;;;18.20;64.60;;;;;;5003177;28;42932;-86
2024/01/01 04:10:58;;;;;;;;;;;18.10;64.60;;;;;;5003938;28;42964;-88
2024/01/01 04:13:24;;;;;;;;;;;18.00;64.50;;;;;;5003997;28;43123;-86
2024/01/01 04:15:50;;;;;;;;;;;18.10;64.50;;;;;;5003329;28;43368;-88
2024/01/01 04:18:15;;;;;;;;;;;18.00;64.50;;;;;;5003910;28;43013;-86
2024/01/01 04:20:41;;;;;;;;;;;18.10;65.50;;;;;;5003481;28;44105;-85
2024/01/01 04:23:06;;;;;;;;;;;18.20;64.80;;;;;;5002730;28;42972;-90
2024/01/01 04:25:32;;;;;;;;;;;18.10;64.70;;;;;;5002891;28;42968;-86
2024/01/01 04:27:57;;;;;;;;;;;18.00;64.60;;;;;;5003692;28;43056;-89
2024/01/01 04:30:23;;;;;;;;;;;18.10;65.60;;;;;;5003926;28;43435;-88
2024/01/01 04:32:48;;;;;;;;;;;18.00;64.80;;;;;;5003300;28;42893;-89
2024/01/01 04:35:14;;;;;;;;;;;18.00;64.80;;;;;;5003151;28;42833;-87
2024/01/01 04:37:39;;;;;;;;;;;18.00;65.80;;;;;;5002371;28;43050;-86
2024/01/01 04:40:05;;;;;;;;;;;18.10;64.90;;;;;;5002384;28;42909;-87
2024/01/01 04:42:31;;;;;;;;;;;18.00;64.90;;;;;;5002917;28;42940;-86
2024/01/01 04:44:56;;;;;;;;;;;18.00;64.90;;;;;;5003018;28;43741;-86
2024/01/01 04:47:25;;;;;;;;;;;18.20;65.00;;;;;;5002585;28;43136;-88
2024/01/01 04:49:51;;;;;;;;;;;18.00;64.90;;;;;;5003883;28;43155;-86
2024/01/01 04:52:16;;;;;;;;;;;18.00;64.90;;;;;;4997084;28;43019;-88
2024/01/01 04:54:42;;;;;;;;;;;18.00;64.90;;;;;;4987623;28;42991;-88
2024/01/01 04:57:07;;;;;;;;;;;18.00;64.90;;;;;;4986952;28;43066;-88
2024/01/01 04:59:33;;;;;;;;;;;18.00;64.90;;;;;;5001082;28;43721;-85
2024/01/01 05:01:58;;;;;;;;;;;18.00;64.80;;;;;;4986204;28;43009;-89
2024/01/01 05:04:24;;;;;;;;;;;18.10;65.00;;;;;;4986179;28;42880;-86
2024/01/01 05:06:49;;;;;;;;;;;18.00;65.00;;;;;;4986675;28;43300;-85
2024/01/01 05:09:15;;;;;;;;;;;18.00;65.90;;;;;;4986876;28;42899;-86
2024/01/01 05:11:41;;;;;;;;;;;18.20;65.30;;;;;;4986725;28;42956;-85
2024/01/01 05:14:07;;;;;;;;;;;18.10;65.00;;;;;;4987291;28;43517;-89
2024/01/01 05:16:35;;;;;;;;;;;18.10;65.10;;;;;;4985921;28;42968;-87
2024/01/01 05:19:01;;;;;;;;;;;18.00;65.20;;;;;;4984485;28;44704;-87
2024/01/01 05:21:26;;;;;;;;;;;18.10;65.00;;;;;;4989330;28;42946;-87
2024/01/01 05:23:52;;;;;;;;;;;18.00;64.80;;;;;;5006014;28;43743;-88
2024/01/01 05:26:17;;;;;;;;;;;18.10;65.00;;;;;;5006406;28;43165;-86
2024/01/01 05:28:43;;;;;;;;;;;18.10;65.00;;;;;;5006036;28;43497;-86
2024/01/01 05:31:08;;;;;;;;;;;18.00;65.00;;;;;;5004326;28;43158;-86
2024/01/01 05:33:35;;;;;;;;;;;18.20;65.30;;;;;;5005663;28;43491;-87
2024/01/01 05:36:01;;;;;;;;;;;18.10;65.30;;;;;;5005964;28;42901;-87
2024/01/01 05:38:26;;;;;;;;;;;18.10;65.30;;;;;;5006337;28;43367;-89
2024/01/01 05:40:52;;;;;;;;;;;18.00;65.30;;;;;;5005858;28;43146;-85
2024/01/01 05:43:17;;;;;;;;;;;18.00;65.30;;;;;;5006395;28;43588;-88
2024/01/01 05:45:44;;;;;;;;;;;18.10;65.30;;;;;;5006381;28;43698;-85
2024/01/01 05:48:10;;;;;;;;;;;18.00;65.30;;;;;;5006422;28;43215;-85
2024/01/01 05:50:35;;;;;;;;;;;18.10;65.40;;;;;;5025164;28;42986;-87
2024/01/01 05:53:01;;;;;;;;;;;18.00;65.60;;;;;;5025964;28;44788;-85
2024/01/01 05:55:26;;;;;;;;;;;18.00;65.60;;;;;;5006064;28;43035;-87
2024/01/01 05:57:52;;;;;;;;;;;18.10;65.60;;;;;;5005675;28;43054;-84
2024/01/01 06:00:19;;;;;;;;;;;18.00;65.50;;;;;;5006591;28;42843;-86
2024/01/01 06:02:44;;;;;;;;;;;18.10;65.50;;;;;;5004987;28;43407;-86
2024/01/01 06:05:10;;;;;;;;;;;18.10;65.20;;;;;;5005180;28;42936;-85
2024/01/01 06:07:35;;;;;;;;;;;18.00;65.40;;;;;;5005700;28;43551;-85
2024/01/01 06:10:01;;;;;;;;;;;17.90;65.30;;;;;;5005845;28;42967;-85
2024/01/01 06:12:27;;;;;;;;;;;18.10;65.70;;;;;;5005280;28;42955;-84
2024/01/01 06:14:52;;;;;;;;;;;18.10;65.60;;;;;;5005560;28;42979;-84
2024/01/01 06:17:18;;;;;;;;;;;18.10;65.70;;;;;;5005552;28;43875;-84
2024/01/01 06:19:43;;;;;;;;;;;18.00;65.60;;;;;;5004492;28;43164;-84
2024/01/01 06:22:09;;;;;;;;;;;18.00;65.70;;;;;;5003767;28;44890;-85
2024/01/01 06:24:34;;;;;;;;;;;17.90;65.60;;;;;;4999325;28;43094;-84
2024/01/01 06:27:00;;;;;;;;;;;17.90;65.70;;;;;;5001954;28;43374;-85
2024/01/01 06:29:27;;;;;;;;;;;18.00;65.70;;;;;;5011100;28;42923;-84
2024/01/01 06:31:53;;;;;;;;;;;18.00;65.60;;;;;;5023408;28;45062;-84
2024/01/01 06:34:19;;;;;;;;;;;18.10;65.90;;;;;;5025299;28;43015;-85
2024/01/01 06:36:45;;;;;;;;;;;18.00;65.80;;;;;;5024033;28;43604;-84
2024/01/01 06:39:11;;;;;;;;;;;18.00;65.90;;;;;;5025269;28;42853;-85
2024/01/01 06:41:36;;;;;;;;;;;18.00;65.90;;;;;;5024933;28;42852;-83
2024/01/01 06:44:01;;;;;;;;;;;17.90;65.90;;;;;;5023774;28;42951;-84
2024/01/01 06:46:27;;;;;;;;;;;17.90;66.00;;;;;;5024711;28;43099;-84
2024/01/01 06:48:52;;;;;;;;;;;18.00;66.00;;;;;;5011729;28;43155;-87
2024/01/01 06:51:18;;;;;;;;;;;18.00;55.20;;;;;;5004288;28;43587;-87
2024/01/01 06:53:43;;;;;;;;;;;17.60;53.60;;;;;;5004022;28;42865;-86
2024/01/01 06:56:09;;;;;;;;;;;17.60;50.00;;;;;;5005220;28;42837;-83
2024/01/01 06:58:34;;;;;;;;;;;17.30;51.40;;;;;;5005082;28;43034;-83
2024/01/01 07:01:00;;;;;;;;;;;17.00;50.90;;;;;;5004767;28;43540;-83
2024/01/01 07:03:26;;;;;;;;;;;16.70;50.10;;;;;;5000379;28;44977;-84
2024/01/01 07:05:51;;;;;;;;;;;16.50;50.10;;;;;;5011951;28;43641;-84
2024/01/01 07:08:17;;;;;;;;;;;16.50;50.30;;;;;;5003803;28;43105;-84
2024/01/01 07:10:42;;;;;;;;;;;16.40;49.80;;;;;;4995259;28;42987;-87
2024/01/01 07:13:10;;;;;;;;;;;16.20;49.70;;;;;;5002557;28;60700;-87
2024/01/01 07:15:35;;;;;;;;;;;16.10;50.90;;;;;;5003549;28;42987;-90
2024/01/01 07:18:06;;;;;;;;;;;16.20;52.90;;;;;;5002857;28;43422;-86
2024/01/01 07:20:31;;;;;;;;;;;16.30;53.40;;;;;;5004495;28;43663;-88
2024/01/01 07:22:57;;;;;;;;;;;16.50;54.20;;;;;;5005358;28;42971;-91
2024/01/01 07:25:25;;;;;;;;;;;16.60;56.00;;;;;;5003084;28;43106;-90
2024/01/01 07:27:50;;;;;;;;;;;17.00;56.70;;;;;;5001285;28;43015;-91
2024/01/01 07:30:16;;;;;;;;;;;17.10;56.20;;;;;;5003267;28;43033;-88
2024/01/01 07:32:41;;;;;;;;;;;17.20;55.60;;;;;;5002341;28;43018;-87
2024/01/01 07:35:08;;;;;;;;;;;17.20;56.20;;;;;;5017284;28;44194;-91
2024/01/01 07:38:03;;;;;;;;;;;17.30;56.00;;;;;;5014595;28;43086;-89
2024/01/01 07:40:29;;;;;;;;;;;17.30;56.30;;;;;;5005800;28;43526;-87
2024/01/01 07:42:55;;;;;;;;;;;17.30;56.30;;;;;;5011122;28;42917;-86
2024/01/01 07:45:22;;;;;;;;;;;17.30;56.40;;;;;;5005502;28;42818;-86
2024/01/01 07:47:47;;;;;;;;;;;17.20;56.60;;;;;;5005432;28;43154;-88
2024/01/01 07:50:13;;;;;;;;;;;17.40;56.80;;;;;;5003174;28;43641;-86
2024/01/01 07:52:38;;;;;;;;;;;17.50;57.10;;;;;;5005156;28;43086;-87
2024/01/01 07:55:04;;;;;;;;;;;17.60;57.20;;;;;;5004631;28;45153;-86
2024/01/01 07:57:30;;;;;;;;;;;17.40;57.40;;;;;;5004925;28;42894;-88
2024/01/01 07:59:58;;;;;;;;;;;17.50;57.50;;;;;;5003014;28;44435;-87
2024/01/01 08:02:24;;;;;;;;;;;17.40;57.50;;;;;;5003257;28;42976;-87
2024/01/01 08:04:49;;;;;;;;;;;17.40;57.80;;;;;;5004569;28;42955;-88
2024/01/01 08:07:15;;;;;;;;;;;17.50;57.70;;;;;;5003167;28;43326;-87
2024/01/01 08:09:40;;;;;;;;;;;17.70;57.90;;;;;;5004358;28;42916;-88
2024/01/01 08:12:06;;;;;;;;;;;17.50;58.00;;;;;;5002559;28;43038;-88
2024/01/01 08:14:31;;;;;;;;;;;17.60;58.40;;;;;;5003673;28;43972;-88
2024/01/01 08:16:57;;;;;;;;;;;17.60;58.30;;;;;;5004460;28;43066;-88
2024/01/01 08:19:22;;;;;;;;;;;18.10;58.80;;;;;;5004839;28;42980;-88
2024/01/01 08:21:48;;;;;;;;;;;17.50;58.60;;;;;;5003224;28;43150;-87
2024/01/01 08:24:13;;;;;;;;;;;17.70;58.90;;;;;;5004264;28;43003;-87
2024/01/01 08:26:39;;;;;;;;;;;17.70;59.00;;;;;;5004230;28;42919;-88
2024/01/01 08:29:05;;;;;;;;;;;17.60;59.00;;;;;;5006351;28;42991;-87
2024/01/01 08:31:30;;;;;;;;;;;17.60;59.00;;;;;;5007727;28;42899;-87
2024/01/01 08:33:56;;;;;;;;;;;17.70;59.10;;;;;;5007563;28;43880;-87
2024/01/01 08:36:21;;;;;;;;;;;17.50;59.10;;;;;;5007768;28;43575;-88
2024/01/01 08:38:47;;;;;;;;;;;17.70;59.40;;;;;;5007474;28;43708;-88
2024/01/01 08:41:12;;;;;;;;;;;17.70;59.30;;;;;;5007200;28;42852;-87
2024/01/01 08:43:38;;;;;;;;;;;17.70;59.40;;;;;;5007839;28;42979;-87
2024/01/01 08:46:04;;;;;;;;;;;17.70;59.50;;;;;;5006520;28;42996;-87
2024/01/01 08:48:29;;;;;;;;;;;17.80;59.80;;;;;;5007209;28;43089;-88
2024/01/01 08:50:55;;;;;;;;;;;17.80;59.70;;;;;;5007306;28;42982;-88
2024/01/01 08:53:20;;;;;;;;;;;17.70;59.80;;;;;;5007421;28;43005;-87
2024/01/01 08:55:47;;;;;;;;;;;17.70;59.70;;;;;;5007845;28;42926;-87
2024/01/01 08:58:12;;;;;;;;;;;17.50;59.80;;;;;;5007513;28;43737;-88
2024/01/01 09:00:38;;;;;;;;;;;17.60;59.90;;;;;;5007753;28;43202;-89
2024/01/01 09:03:03;;;;;;;;;;;17.70;60.00;;;;;;5007713;28;42976;-87
2024/01/01 09:05:29;;;;;;;;;;;;;;;;;;5007308;28;42932;-89
2024/01/01 09:07:55;;;;;;;;;;;17.70;60.10;;;;;;5007422;28;42905;-89
2024/01/01 09:10:20;;;;;;;;;;;17.70;60.20;;;;;;5005527;28;42726;-87
2024/01/01 09:12:46;;;;;;;;;;;17.70;60.30;;;;;;5006833;28;42954;-87
2024/01/01 09:15:15;;;;;;;;;;;17.70;60.30;;;;;;5006217;28;43168;-84
2024/01/01 09:17:41;;;;;;;;;;;17.80;60.40;;;;;;5004327;28;43906;-84
2024/01/01 09:20:07;;;;;;;;;;;17.70;60.50;;;;;;5006981;28;43028;-84
2024/01/01 09:22:32;;;;;;;;;;;17.70;60.50;;;;;;5006334;28;43495;-84
2024/01/01 09:24:58;;;;;;;;;;;17.70;60.50;;;;;;5006314;28;42974;-85
2024/01/01 09:27:24;;;;;;;;;;;17.60;60.50;;;;;;5006775;28;43761;-85
2024/01/01 09:29:49;;;;;;;;;;;17.70;60.70;;;;;;5006751;28;42980;-85
2024/01/01 09:32:14;;;;;;;;;;;17.60;60.80;;;;;;5006395;28;43375;-85
2024/01/01 09:34:40;;;;;;;;;;;17.80;61.00;;;;;;5006612;28;43019;-85
2024/01/01 09:37:06;;;;;;;;;;;17.80;60.90;;;;;;5006726;28;43520;-85
2024/01/01 09:39:31;;;;;;;;;;;17.70;61.00;;;;;;5006768;28;42931;-85
2024/01/01 09:41:57;;;;;;;;;;;17.50;60.90;;;;;;5005328;28;45476;-85
2024/01/01 09:44:22;;;;;;;;;;;17.70;61.00;;;;;;5005942;28;43229;-85
2024/01/01 09:46:48;;;;;;;;;;;17.50;60.50;;;;;;5006148;28;42996;-85
2024/01/01 09:49:13;;;;;;;;;;;17.80;60.70;;;;;;5007000;28;42913;-87
2024/01/01 09:51:39;;;;;;;;;;;17.70;60.80;;;;;;5003732;28;43994;-87
2024/01/01 09:54:05;;;;;;;;;;;17.50;61.70;;;;;;5006137;28;42987;-88
2024/01/01 09:56:30;;;;;;;;;;;17.70;61.00;;;;;;5002640;28;43537;-86
2024/01/01 09:58:58;;;;;;;;;;;17.60;60.90;;;;;;5010190;28;43279;-85
2024/01/01 10:01:24;;;;;;;;;;;17.70;61.10;;;;;;5015404;28;43509;-85
2024/01/01 10:04:03;;;;;;;;;;;17.50;60.80;;;;;;5006389;28;43012;-86
2024/01/01 10:06:29;;;;;;;;;;;17.80;61.00;;;;;;5006131;28;43288;-86
2024/01/01 10:09:06;;;;;;;;;;;17.60;60.80;;;;;;5005760;28;42971;-86
2024/01/01 10:11:32;;;;;;;;;;;17.70;61.20;;;;;;5004088;28;45477;-86
2024/01/01 10:14:02;;;;;;;;;;;17.60;61.10;;;;;;5004421;28;43092;-85
2024/01/01 10:16:27;;;;;;;;;;;17.70;61.20;;;;;;5006191;28;42865;-85
2024/01/01 10:18:55;;;;;;;;;;;17.70;61.40;;;;;;5006539;28;42890;-85
2024/01/01 10:21:25;;;;;;;;;;;17.70;61.30;;;;;;5006471;28;43634;-86
2024/01/01 10:23:50;;;;;;;;;;;17.70;61.20;;;;;;5005940;28;42886;-85
2024/01/01 10:26:16;;;;;;;;;;;17.70;61.30;;;;;;5005958;28;43161;-86
2024/01/01 10:28:42;;;;;;;;;;;17.80;61.30;;;;;;5005867;28;42998;-85
2024/01/01 10:31:12;;;;;;;;;;;17.70;61.40;;;;;;5005721;28;43933;-86
2024/01/01 10:33:39;;;;;;;;;;;17.70;61.40;;;;;;5006018;28;43119;-86
2024/01/01 10:36:05;;;;;;;;;;;17.60;61.70;;;;;;5005803;28;43949;-86
2024/01/01 10:38:31;;;;;;;;;;;17.70;62.00;;;;;;5006253;28;42850;-85
2024/01/01 10:40:58;;;;;;;;;;;17.70;61.80;;;;;;5006063;28;44114;-86
2024/01/01 10:43:27;;;;;;;;;;;17.80;62.00;;;;;;5005735;28;42959;-86
2024/01/01 10:46:05;;;;;;;;;;;17.80;61.70;;;;;;5005413;28;43117;-85
2024/01/01 10:48:32;;;;;;;;;;;17.70;61.80;;;;;;5005692;28;43021;-85
2024/01/01 10:50:58;;;;;;;;;;;17.80;61.80;;;;;;5002359;28;45559;-85
2024/01/01 10:53:38;;;;;;;;;;;17.70;62.40;;;;;;5005871;28;42995;-85
2024/01/01 10:56:14;;;;;;;;;;;17.70;62.40;;;;;;5005694;28;42871;-85
2024/01/01 10:59:02;;;;;;;;;;;17.80;62.50;;;;;;5004660;28;42894;-85
2024/01/01 11:01:28;;;;;;;;;;;17.70;62.30;;;;;;5004999;28;44447;-87
2024/01/01 11:03:54;;;;;;;;;;;17.80;62.40;;;;;;5003523;28;43268;-86
2024/01/01 11:06:20;;;;;;;;;;;17.90;62.30;;;;;;5005049;28;42951;-86
2024/01/01 11:08:45;;;;;;;;;;;17.70;62.30;;;;;;5005537;28;43142;-86
2024/01/01 11:11:21;;;;;;;;;;;17.60;62.30;;;;;;5005360;28;43002;-86
2024/01/01 11:13:49;;;;;;;;;;;17.80;62.60;;;;;;5005718;28;42994;-87
2024/01/01 11:16:15;;;;;;;;;;;17.90;62.50;;;;;;5005306;28;42996;-87
2024/01/01 11:18:43;;;;;;;;;;;17.70;62.20;;;;;;5005726;28;42875;-86
2024/01/01 11:21:09;;;;;;;;;;;17.90;62.40;;;;;;5004853;28;43529;-87
2024/01/01 11:23:50;;;;;;;;;;;17.70;62.40;;;;;;5005300;28;43051;-87
2024/01/01 11:26:25;;;;;;;;;;;17.80;62.50;;;;;;5002823;28;44826;-87
2024/01/01 11:28:51;;;;;;;;;;;;;;;;;;5003458;28;43292;-87
2024/01/01 11:31:17;;;;;;;;;;;17.70;60.40;;;;;;5003308;28;44376;-86
2024/01/01 11:33:43;;;;;;;;;;;;;;;;;;5005061;28;42980;-86
2024/01/01 11:36:09;;;;;;;;;;;17.90;63.30;;;;;;5004095;28;43062;-86
2024/01/01 11:38:35;;;;;;;;;;;17.90;62.90;;;;;;5003949;28;43091;-86
2024/01/01 11:41:00;;;;;;;;;;;17.70;62.40;;;;;;5003801;28;43003;-85
2024/01/01 11:43:26;;;;;;;;;;;17.80;62.50;;;;;;5004491;28;43010;-85
2024/01/01 11:45:55;;;;;;;;;;;17.80;62.10;;;;;;5004615;28;44027;-86
2024/01/01 11:48:20;;;;;;;;;;;17.70;61.50;;;;;;5003940;28;43027;-86
2024/01/01 11:50:59;;;;;;;;;;;;;;;;;;;;;
2024/01/01 11:53:25;;;;;;;;;;;17.70;59.60;;;;;;5002503;28;67326;-86
2024/01/01 11:55:50;;;;;;;;;;;17.70;59.30;;;;;;5001782;28;45628;-86
2024/01/01 11:58:17;;;;;;;;;;;17.80;59.40;;;;;;5003584;28;43553;-86
2024/01/01 12:00:43;;;;;;;;;;;17.80;59.30;;;;;;5003622;28;43158;-86
2024/01/01 12:03:08;;;;;;;;;;;17.70;59.20;;;;;;5005051;28;42940;-87
2024/01/01 12:05:34;;;;;;;;;;;17.70;59.30;;;;;;5008013;28;44517;-85
2024/01/01 12:08:10;;;;;;;;;;;17.80;59.40;;;;;;5008854;28;43054;-86
2024/01/01 12:10:35;;;;;;;;;;;17.70;59.20;;;;;;5008772;28;42982;-87
2024/01/01 12:13:03;;;;;;;;;;;17.90;59.50;;;;;;5010696;28;42888;-87
2024/01/01 12:15:32;;;;;;;;;;;17.80;59.40;;;;;;5006789;28;44787;-86
2024/01/01 12:17:57;;;;;;;;;;;17.90;59.40;;;;;;5011701;28;43777;-86
2024/01/01 12:20:23;;;;;;;;;;;17.70;59.30;;;;;;5020766;28;42746;-86
2024/01/01 12:22:49;;;;;;;;;;;17.80;59.40;;;;;;5010973;28;43188;-86
2024/01/01 12:25:19;;;;;;;;;;;17.60;59.30;;;;;;5010442;28;43192;-87
2024/01/01 12:28:04;;;;;;;;;;;17.80;59.50;;;;;;5008973;28;43014;-86
2024/01/01 12:30:30;;;;;;;;;;;17.70;59.40;;;;;;5022729;28;45529;-86
2024/01/01 12:32:55;;;;;;;;;;;17.80;59.50;;;;;;5010422;28;43031;-86
2024/01/01 12:35:21;;;;;;;;;;;17.80;59.50;;;;;;5009996;28;43732;-86
2024/01/01 12:37:47;;;;;;;;;;;17.80;59.60;;;;;;5010344;28;42928;-86
2024/01/01 12:40:16;;;;;;;;;;;17.80;59.60;;;;;;5010167;28;43331;-86
2024/01/01 12:42:42;;;;;;;;;;;17.90;60.00;;;;;;5010260;28;42813;-86
2024/01/01 12:45:07;;;;;;;;;;;17.70;60.50;;;;;;5009665;28;42905;-86
2024/01/01 12:47:33;;;;;;;;;;;17.80;60.90;;;;;;5009938;28;42947;-86
2024/01/01 12:49:58;;;;;;;;;;;18.00;63.20;;;;;;5009847;28;42928;-86
2024/01/01 12:52:24;;;;;;;;;;;17.80;63.40;;;;;;5009935;28;42926;-87
2024/01/01 12:54:50;;;;;;;;;;;17.80;63.60;;;;;;5009307;28;43145;-86
2024/01/01 12:57:17;;;;;;;;;;;17.90;59.70;;;;;;5008693;28;43170;-86
2024/01/01 12:59:45;;;;;;;;;;;17.80;59.20;;;;;;5009721;28;43470;-86
2024/01/01 13:02:11;;;;;;;;;;;17.90;59.20;;;;;;5009766;28;43018;-87
2024/01/01 13:04:36;;;;;;;;;;;17.80;59.10;;;;;;5008307;28;45451;-86
2024/01/01 13:07:03;;;;;;;;;;;17.80;59.20;;;;;;5009396;28;42935;-86
2024/01/01 13:09:28;;;;;;;;;;;17.80;59.10;;;;;;5022258;28;45383;-86
2024/01/01 13:11:54;;;;;;;;;;;17.70;59.10;;;;;;5010176;28;43216;-86
2024/01/01 13:14:19;;;;;;;;;;;17.80;59.20;;;;;;5007161;28;43058;-86
2024/01/01 13:16:47;;;;;;;;;;;17.80;59.10;;;;;;5006652;28;43141;-86
2024/01/01 13:19:13;;;;;;;;;;;17.80;59.10;;;;;;5005044;28;43800;-86
2024/01/01 13:21:39;;;;;;;;;;;17.70;59.10;;;;;;5005416;28;42932;-86
2024/01/01 13:24:06;;;;;;;;;;;17.90;59.20;;;;;;5006104;28;42960;-86
2024/01/01 13:26:33;;;;;;;;;;;17.80;59.10;;;;;;5006349;28;42993;-86
2024/01/01 13:28:58;;;;;;;;;;;17.80;59.10;;;;;;5005790;28;43057;-85
2024/01/01 13:31:24;;;;;;;;;;;17.90;59.10;;;;;;5005382;28;43123;-86
2024/01/01 13:33:49;;;;;;;;;;;17.80;59.10;;;;;;5006167;28;43646;-86
2024/01/01 13:36:15;;;;;;;;;;;17.70;59.10;;;;;;5003723;28;43111;-86
2024/01/01 13:38:41;;;;;;;;;;;17.80;59.20;;;;;;5005912;28;43117;-86
2024/01/01 13:41:07;;;;;;;;;;;17.70;59.10;;;;;;5004402;28;43026;-86
2024/01/01 13:43:32;;;;;;;;;;;17.80;59.30;;;;;;5004593;28;44462;-86
2024/01/01 13:45:58;;;;;;;;;;;17.80;59.40;;;;;;5006438;28;43076;-86
2024/01/01 13:48:23;;;;;;;;;;;17.60;59.30;;;;;;5004321;28;44041;-86
2024/01/01 13:50:49;;;;;;;;;;;17.80;59.90;;;;;;5004933;28;42998;-86
2024/01/01 13:53:15;;;;;;;;;;;17.80;60.40;;;;;;5005086;28;42920;-86
2024/01/01 13:55:41;;;;;;;;;;;17.70;61.80;;;;;;5005845;28;42990;-87
2024/01/01 13:58:07;;;;;;;;;;;17.70;62.30;;;;;;5005199;28;43040;-87
2024/01/01 14:00:36;;;;;;;;;;;17.90;62.50;;;;;;5005404;28;44143;-86
2024/01/01 14:03:02;;;;;;;;;;;;;;;;;;5005460;28;43070;-89
2024/01/01 14:05:28;;;;;;;;;;;17.80;61.70;;;;;;5020202;28;42968;-94
2024/01/01 14:07:53;;;;;;;;;;;17.80;61.30;;;;;;5009362;28;42876;-94
2024/01/01 14:10:20;;;;;;;;;;;17.80;60.30;;;;;;5019461;28;42984;-93
2024/01/01 14:12:55;;;;;;;;;;;;;;;;;;5015068;28;43400;-90
2024/01/01 14:15:23;;;;;;;;;;;17.80;60.80;;;;;;5015218;28;43117;-90
2024/01/01 14:17:57;;;;;;;;;;;17.90;61.90;;;;;;5000347;28;43038;-89
2024/01/01 14:20:33;;;;;;;;;;;;;;;;;;5000344;28;43719;-92
2024/01/01 14:23:14;;;;;;;;;;;17.90;62.70;;;;;;5001235;28;43607;-93
2024/01/01 14:25:40;;;;;;;;;;;17.90;63.30;;;;;;5001477;28;43611;-87
2024/01/01 14:28:05;;;;;;;;;;;17.90;63.20;;;;;;5003154;28;44200;-88
2024/01/01 14:30:31;;;;;;;;;;;17.80;63.10;;;;;;5005948;28;43035;-85
2024/01/01 14:32:58;;;;;;;;;;;17.80;62.70;;;;;;5002518;28;44634;-88
2024/01/01 14:35:23;;;;;;;;;;;17.90;62.60;;;;;;5005440;28;43170;-88
2024/01/01 14:37:49;;;;;;;;;;;17.70;62.40;;;;;;5007142;28;43266;-88
2024/01/01 14:40:15;;;;;;;;;;;17.70;63.10;;;;;;5031786;28;43092;-89
2024/01/01 14:42:41;;;;;;;;;;;17.80;63.10;;;;;;5015180;28;44010;-88
2024/01/01 14:45:07;;;;;;;;;;;17.80;62.90;;;;;;5006367;28;42949;-88
2024/01/01 14:47:32;;;;;;;;;;;17.80;62.80;;;;;;5005677;28;42964;-88
2024/01/01 14:49:58;;;;;;;;;;;17.80;62.90;;;;;;5006048;28;43114;-91
2024/01/01 14:52:29;;;;;;;;;;;17.70;62.60;;;;;;5021019;28;44465;-89
2024/01/01 14:54:55;;;;;;;;;;;17.90;62.70;;;;;;5003756;28;42933;-88
2024/01/01 14:57:24;;;;;;;;;;;;;;;;;;5019989;28;45683;-89
2024/01/01 14:59:49;;;;;;;;;;;17.90;61.80;;;;;;5004790;28;43027;-88
2024/01/01 15:02:15;;;;;;;;;;;17.80;61.90;;;;;;5003285;28;45270;-88
2024/01/01 15:04:44;;;;;;;;;;;17.80;61.90;;;;;;5005946;28;42764;-88
2024/01/01 15:07:10;;;;;;;;;;;17.70;62.20;;;;;;5005701;28;43905;-88
2024/01/01 15:09:41;;;;;;;;;;;17.70;59.50;;;;;;5005954;28;42979;-87
2024/01/01 15:12:07;;;;;;;;;;;17.70;59.50;;;;;;5005611;28;43023;-89
2024/01/01 15:14:33;;;;;;;;;;;17.80;59.60;;;;;;5005705;28;43444;-89
2024/01/01 15:17:10;;;;;;;;;;;17.80;59.60;;;;;;5005548;28;42975;-88
2024/01/01 15:19:36;;;;;;;;;;;17.80;59.50;;;;;;5005460;28;43042;-89
2024/01/01 15:22:02;;;;;;;;;;;17.80;59.50;;;;;;5020268;28;45238;-89
2024/01/01 15:24:27;;;;;;;;;;;17.70;59.50;;;;;;5020160;28;42978;-88
2024/01/01 15:26:54;;;;;;;;;;;17.80;59.60;;;;;;5003744;28;45863;-91
2024/01/01 15:29:19;;;;;;;;;;;17.80;59.50;;;;;;5003656;28;42972;-90
2024/01/01 15:31:57;;;;;;;;;;;17.80;59.50;;;;;;5004350;28;43811;-89
2024/01/01 15:34:23;;;;;;;;;;;17.70;59.50;;;;;;5020797;28;43170;-91
2024/01/01 15:36:49;;;;;;;;;;;17.80;59.60;;;;;;5000165;28;43798;-93
2024/01/01 15:39:16;;;;;;;;;;;17.70;59.50;;;;;;5002481;28;43044;-90
2024/01/01 15:41:44;;;;;;;;;;;17.70;59.70;;;;;;5004531;28;42989;-89
2024/01/01 15:44:10;;;;;;;;;;;17.70;59.90;;;;;;5002741;28;43155;-90
2024/01/01 15:46:35;;;;;;;;;;;17.70;59.70;;;;;;5002645;28;43006;-90
2024/01/01 15:49:01;;;;;;;;;;;17.70;59.70;;;;;;5003973;28;43066;-89
2024/01/01 15:51:26;;;;;;;;;;;17.70;59.70;;;;;;5004351;28;42925;-89
2024/01/01 15:53:52;;;;;;;;;;;17.80;59.80;;;;;;5003253;28;42913;-88
2024/01/01 15:56:20;;;;;;;;;;;17.70;59.70;;;;;;5012031;28;44236;-91
2024/01/01 15:58:45;;;;;;;;;;;17.70;59.70;;;;;;5029552;28;43030;-90
2024/01/01 16:01:12;;;;;;;;;;;17.80;59.80;;;;;;5012687;28;43811;-91
2024/01/01 16:03:47;;;;;;;;;;;17.70;59.70;;;;;;5029748;28;42940;-90
2024/01/01 16:06:13;;;;;;;;;;;17.70;59.70;;;;;;5030113;28;45656;-90
2024/01/01 16:08:39;;;;;;;;;;;17.70;59.70;;;;;;5013530;28;42821;-91
2024/01/01 16:11:05;;;;;;;;;;;17.70;59.70;;;;;;5014096;28;43552;-90
2024/01/01 16:13:48;;;;;;;;;;;;;;;;;;5029976;28;42978;-91
2024/01/01 16:16:17;;;;;;;;;;;17.70;59.70;;;;;;5013668;28;43432;-90
2024/01/01 16:18:43;;;;;;;;;;;;;;;;;;5012976;28;43087;-91
2024/01/01 16:21:12;;;;;;;;;;;17.70;59.70;;;;;;5027679;28;44926;-91
2024/01/01 16:23:37;;;;;;;;;;;17.60;59.60;;;;;;5009638;28;43040;-90
2024/01/01 16:26:03;;;;;;;;;;;17.70;59.70;;;;;;5012184;28;44671;-90
2024/01/01 16:28:35;;;;;;;;;;;;;;;;;;5012847;28;42907;-91